createdAt,value
2023-02-12T00:00:16.707Z,1.50
2023-02-12T00:02:43.449Z,1.50
2023-02-12T00:05:10.058Z,1.50
2023-02-12T00:07:36.629Z,1.40
2023-02-12T00:10:04.161Z,1.40
2023-02-12T00:12:30.831Z,1.30
2023-02-12T00:14:57.404Z,1.40
2023-02-12T00:17:24.129Z,1.30
2023-02-12T00:19:51.308Z,1.30
2023-02-12T00:22:17.929Z,1.20
2023-02-12T00:24:44.604Z,1.30
2023-02-12T00:27:11.235Z,1.30
2023-02-12T00:29:38.485Z,1.20
2023-02-12T00:32:05.246Z,1.20
2023-02-12T00:34:32.146Z,1.20
2023-02-12T00:36:58.812Z,1.30
2023-02-12T00:39:25.509Z,1.40
2023-02-12T00:41:52.099Z,1.30
2023-02-12T00:44:18.733Z,1.30
2023-02-12T00:46:45.407Z,1.30
2023-02-12T00:49:12.186Z,1.30
2023-02-12T00:51:38.745Z,1.40
2023-02-12T00:54:05.357Z,1.40
2023-02-12T00:56:32.254Z,1.40
2023-02-12T00:58:59.240Z,1.40
2023-02-12T01:01:25.853Z,1.30
2023-02-12T01:03:52.474Z,1.20
2023-02-12T01:06:19.070Z,1.20
2023-02-12T01:08:45.631Z,1.30
2023-02-12T01:11:13.265Z,1.20
2023-02-12T01:13:39.843Z,1.20
2023-02-12T01:16:18.182Z,1.10
2023-02-12T01:18:45.427Z,1.20
2023-02-12T01:21:18.228Z,1.20
2023-02-12T01:23:45.634Z,1.10
2023-02-12T01:26:13.926Z,1.00
2023-02-12T01:28:42.808Z,1.00
2023-02-12T01:31:14.994Z,0.90
2023-02-12T01:33:42.061Z,1.00
2023-02-12T01:36:09.888Z,1.00
2023-02-12T01:38:36.741Z,1.00
2023-02-12T01:41:08.964Z,1.10
2023-02-12T01:43:36.484Z,1.00
2023-02-12T01:46:04.488Z,0.90
2023-02-12T01:48:37.184Z,0.90
2023-02-12T01:51:04.534Z,0.90
2023-02-12T01:53:39.839Z,0.80
2023-02-12T01:56:07.587Z,0.80
2023-02-12T01:58:41.186Z,0.80
2023-02-12T02:01:13.698Z,0.90
2023-02-12T02:03:42.053Z,0.80
2023-02-12T02:06:17.349Z,0.80
2023-02-12T02:08:44.023Z,0.70
2023-02-12T02:11:29.141Z,0.70
2023-02-12T02:14:15.041Z,0.70
2023-02-12T02:16:59.709Z,0.70
2023-02-12T02:19:32.439Z,0.60
2023-02-12T02:22:30.878Z,0.50
2023-02-12T02:25:33.203Z,0.50
2023-02-12T02:28:09.792Z,0.50
2023-02-12T02:30:57.355Z,0.50
2023-02-12T02:33:38.877Z,0.40
2023-02-12T02:36:27.793Z,0.40
2023-02-12T02:39:03.762Z,0.50
2023-02-12T02:41:45.620Z,0.40
2023-02-12T02:44:26.430Z,0.40
2023-02-12T02:46:54.642Z,0.50
2023-02-12T02:49:50.842Z,0.40
2023-02-12T02:52:37.801Z,0.30
2023-02-12T02:55:08.392Z,0.30
2023-02-12T02:57:45.164Z,0.30
2023-02-12T03:00:20.293Z,0.30
2023-02-12T03:02:55.522Z,0.30
2023-02-12T03:05:40.119Z,0.40
2023-02-12T03:08:24.734Z,0.20
2023-02-12T03:11:00.201Z,0.20
2023-02-12T03:13:41.903Z,0.20
2023-02-12T03:16:25.328Z,0.20
2023-02-12T03:19:06.651Z,0.20
2023-02-12T03:21:51.719Z,0.20
2023-02-12T03:24:43.468Z,0.20
2023-02-12T03:27:27.908Z,0.20
2023-02-12T03:29:54.831Z,0.20
2023-02-12T03:32:44.361Z,0.20
2023-02-12T03:35:32.020Z,0.10
2023-02-12T03:38:04.672Z,0.10
2023-02-12T03:40:34.971Z,0.10
2023-02-12T03:43:24.710Z,0.20
2023-02-12T03:46:22.505Z,0.20
2023-02-12T03:49:06.780Z,0.30
2023-02-12T03:51:38.127Z,0.30
2023-02-12T03:54:06.926Z,0.30
2023-02-12T03:56:44.508Z,0.30
2023-02-12T03:59:12.251Z,0.20
2023-02-12T04:01:39.137Z,0.10
2023-02-12T04:04:07.874Z,0.10
2023-02-12T04:06:34.772Z,0.10
2023-02-12T04:09:05.182Z,0.20
2023-02-12T04:11:41.759Z,0.20
2023-02-12T04:14:15.542Z,0.20
2023-02-12T04:16:50.960Z,0.10
2023-02-12T04:19:26.045Z,0.20
2023-02-12T04:22:15.358Z,0.10
2023-02-12T04:24:58.535Z,0.00
2023-02-12T04:27:43.025Z,0.00
2023-02-12T04:30:20.636Z,0.00
2023-02-12T04:32:52.843Z,-0.10
2023-02-12T04:35:30.267Z,-0.20
2023-02-12T04:38:19.122Z,-0.30
2023-02-12T04:40:46.280Z,-0.20
2023-02-12T04:43:12.921Z,-0.10
2023-02-12T04:45:39.845Z,-0.10
2023-02-12T04:48:06.979Z,-0.10
2023-02-12T04:50:40.123Z,-0.10
2023-02-12T04:53:07.016Z,0.00
2023-02-12T04:55:33.738Z,0.00
2023-02-12T04:58:00.752Z,0.00
2023-02-12T05:00:27.396Z,0.00
2023-02-12T05:02:54.048Z,0.00
2023-02-12T05:05:21.551Z,0.00
2023-02-12T05:07:48.542Z,-0.10
2023-02-12T05:10:15.192Z,0.00
2023-02-12T05:12:42.120Z,-0.10
2023-02-12T05:15:09.250Z,0.00
2023-02-12T05:17:36.019Z,0.00
2023-02-12T05:20:02.738Z,-0.10
2023-02-12T05:22:29.314Z,-0.20
2023-02-12T05:24:55.904Z,-0.20
2023-02-12T05:27:22.466Z,-0.20
2023-02-12T05:29:49.058Z,-0.20
2023-02-12T05:32:15.737Z,-0.20
2023-02-12T05:34:42.309Z,-0.20
2023-02-12T05:37:08.876Z,-0.20
2023-02-12T05:39:35.464Z,-0.40
2023-02-12T05:42:02.051Z,-0.40
2023-02-12T05:44:28.669Z,-0.30
2023-02-12T05:46:55.263Z,-0.30
2023-02-12T05:49:27.815Z,-0.30
2023-02-12T05:51:54.403Z,-0.40
2023-02-12T05:54:20.977Z,-0.40
2023-02-12T05:56:48.572Z,-0.40
2023-02-12T05:59:21.981Z,-0.40
2023-02-12T06:01:50.279Z,-0.50
2023-02-12T06:04:21.110Z,-0.50
2023-02-12T06:06:47.893Z,-0.40
2023-02-12T06:09:14.791Z,-0.40
2023-02-12T06:11:42.349Z,-0.40
2023-02-12T06:14:13.388Z,-0.40
2023-02-12T06:16:40.613Z,-0.40
2023-02-12T06:19:07.604Z,-0.40
2023-02-12T06:21:34.744Z,-0.40
2023-02-12T06:24:01.500Z,-0.50
2023-02-12T06:26:28.207Z,-0.50
2023-02-12T06:28:54.913Z,-0.50
2023-02-12T06:31:23.619Z,-0.50
2023-02-12T06:33:50.945Z,-0.60
2023-02-12T06:36:19.166Z,-0.50
2023-02-12T06:38:46.652Z,-0.60
2023-02-12T06:41:13.330Z,-0.70
2023-02-12T06:43:40.200Z,-0.70
2023-02-12T06:46:07.473Z,-0.70
2023-02-12T06:48:34.547Z,-0.70
2023-02-12T06:51:13.512Z,-0.70
2023-02-12T06:53:40.432Z,-0.60
2023-02-12T06:56:13.041Z,-0.60
2023-02-12T06:58:41.848Z,-0.70
2023-02-12T07:01:17.807Z,-0.60
2023-02-12T07:03:55.862Z,-0.70
2023-02-12T07:06:23.134Z,-0.60
2023-02-12T07:08:50.250Z,-0.60
2023-02-12T07:11:17.265Z,-0.60
2023-02-12T07:13:44.763Z,-0.60
2023-02-12T07:16:14.363Z,-0.50
2023-02-12T07:18:42.100Z,-0.40
2023-02-12T07:21:10.085Z,-0.40
2023-02-12T07:23:37.235Z,-0.40
2023-02-12T07:26:09.445Z,-0.30
2023-02-12T07:28:36.119Z,-0.30
2023-02-12T07:31:23.508Z,-0.30
2023-02-12T07:33:54.907Z,-0.30
2023-02-12T07:36:21.955Z,-0.20
2023-02-12T07:38:48.836Z,-0.20
2023-02-12T07:41:19.526Z,-0.20
2023-02-12T07:43:48.114Z,-0.10
2023-02-12T07:46:18.194Z,-0.10
2023-02-12T07:48:46.161Z,0.10
2023-02-12T07:51:15.359Z,0.00
2023-02-12T07:53:42.891Z,0.10
2023-02-12T07:56:09.963Z,0.20
2023-02-12T07:58:37.899Z,0.30
2023-02-12T08:01:21.265Z,0.40
2023-02-12T08:03:49.618Z,0.50
2023-02-12T08:06:20.075Z,0.50
2023-02-12T08:08:47.600Z,0.50
2023-02-12T08:11:15.709Z,0.60
2023-02-12T08:13:42.801Z,0.60
2023-02-12T08:16:12.424Z,0.60
2023-02-12T08:18:39.236Z,0.70
2023-02-12T08:21:10.551Z,0.70
2023-02-12T08:23:37.766Z,0.70
2023-02-12T08:26:24.150Z,0.80
2023-02-12T08:28:53.675Z,0.80
2023-02-12T08:31:23.683Z,0.90
2023-02-12T08:33:52.055Z,0.90
2023-02-12T08:36:21.225Z,1.00
2023-02-12T08:38:48.590Z,1.10
2023-02-12T08:41:21.771Z,1.20
2023-02-12T08:43:49.379Z,1.30
2023-02-12T08:46:22.415Z,1.30
2023-02-12T08:48:51.627Z,1.40
2023-02-12T08:51:20.776Z,1.40
2023-02-12T08:53:51.539Z,1.50
2023-02-12T08:56:18.776Z,1.50
2023-02-12T08:58:45.767Z,1.50
2023-02-12T09:01:17.904Z,1.60
2023-02-12T09:03:45.250Z,1.70
2023-02-12T09:06:12.813Z,1.70
2023-02-12T09:08:40.086Z,1.80
2023-02-12T09:11:09.345Z,1.80
2023-02-12T09:13:36.950Z,1.90
2023-02-12T09:16:05.002Z,2.00
2023-02-12T09:18:31.993Z,2.00
2023-02-12T09:21:10.945Z,2.10
2023-02-12T09:23:38.200Z,2.10
2023-02-12T09:26:10.204Z,2.20
2023-02-12T09:28:38.088Z,2.20
2023-02-12T09:31:14.679Z,2.20
2023-02-12T09:33:42.252Z,2.30
2023-02-12T09:36:11.747Z,2.30
2023-02-12T09:38:38.666Z,2.40
2023-02-12T09:41:26.908Z,2.40
2023-02-12T09:44:17.736Z,2.40
2023-02-12T09:46:57.642Z,2.50
2023-02-12T09:49:33.306Z,2.60
2023-02-12T09:52:00.499Z,2.70
2023-02-12T09:54:44.193Z,2.70
2023-02-12T09:57:33.284Z,2.70
2023-02-12T10:00:18.701Z,2.80
2023-02-12T10:02:46.495Z,2.90
2023-02-12T10:05:19.845Z,2.90
2023-02-12T10:08:10.401Z,3.00
2023-02-12T10:10:54.957Z,3.10
2023-02-12T10:13:36.484Z,3.10
2023-02-12T10:16:08.660Z,3.20
2023-02-12T10:19:15.987Z,3.30
2023-02-12T10:21:56.145Z,3.40
2023-02-12T10:24:52.903Z,3.50
2023-02-12T10:27:33.887Z,3.50
2023-02-12T10:30:01.144Z,3.60
2023-02-12T10:32:33.937Z,3.70
2023-02-12T10:35:00.603Z,3.80
2023-02-12T10:37:43.433Z,3.80
2023-02-12T10:40:32.660Z,3.90
2023-02-12T10:43:01.220Z,4.00
2023-02-12T10:45:34.274Z,4.00
2023-02-12T10:48:08.798Z,4.10
2023-02-12T10:50:56.329Z,4.20
2023-02-12T10:53:38.825Z,4.20
2023-02-12T10:56:11.850Z,4.30
2023-02-12T10:58:53.467Z,4.30
2023-02-12T11:01:36.262Z,4.40
2023-02-12T11:04:26.936Z,4.50
2023-02-12T11:07:08.922Z,4.60
2023-02-12T11:09:40.555Z,4.60
2023-02-12T11:12:32.942Z,4.70
2023-02-12T11:15:02.912Z,4.70
2023-02-12T11:17:39.495Z,4.80
2023-02-12T11:20:22.264Z,4.90
2023-02-12T11:22:55.587Z,4.90
2023-02-12T11:25:23.436Z,5.00
2023-02-12T11:28:22.551Z,5.10
2023-02-12T11:30:57.126Z,5.20
2023-02-12T11:33:34.745Z,5.20
2023-02-12T11:36:24.728Z,5.30
2023-02-12T11:38:57.280Z,5.40
2023-02-12T11:41:37.238Z,5.40
2023-02-12T11:44:17.037Z,5.50
2023-02-12T11:46:59.844Z,5.50
2023-02-12T11:49:37.914Z,5.60
2023-02-12T11:52:05.314Z,5.60
2023-02-12T11:54:39.600Z,6.00
2023-02-12T11:57:06.228Z,6.00
2023-02-12T11:59:37.010Z,6.00
2023-02-12T12:02:28.353Z,6.10
2023-02-12T12:05:01.827Z,6.10
2023-02-12T12:07:33.880Z,6.10
2023-02-12T12:10:07.435Z,6.20
2023-02-12T12:12:55.074Z,6.20
2023-02-12T12:16:05.213Z,6.20
2023-02-12T12:19:01.019Z,6.30
2023-02-12T12:21:50.034Z,6.40
2023-02-12T12:24:31.414Z,6.40
2023-02-12T12:27:14.327Z,6.50
2023-02-12T12:30:07.889Z,6.50
2023-02-12T12:32:38.797Z,6.60
2023-02-12T12:35:10.830Z,6.70
2023-02-12T12:37:45.837Z,6.70
2023-02-12T12:40:36.668Z,6.80
2023-02-12T12:43:30.880Z,6.80
2023-02-12T12:46:15.734Z,6.80
2023-02-12T12:49:13.674Z,6.90
2023-02-12T12:51:50.734Z,7.00
2023-02-12T12:54:36.881Z,7.00
2023-02-12T12:57:35.832Z,7.10
2023-02-12T13:00:14.083Z,7.10
2023-02-12T13:03:11.435Z,7.20
2023-02-12T13:06:03.263Z,7.20
2023-02-12T13:08:54.390Z,7.30
2023-02-12T13:11:41.893Z,7.30
2023-02-12T13:14:27.501Z,7.30
2023-02-12T13:17:18.351Z,7.40
2023-02-12T13:20:02.521Z,7.40
2023-02-12T13:22:49.123Z,7.40
2023-02-12T13:25:31.061Z,7.50
2023-02-12T13:28:00.915Z,7.50
2023-02-12T13:30:33.914Z,7.50
2023-02-12T13:33:09.556Z,7.50
2023-02-12T13:35:41.351Z,7.60
2023-02-12T13:38:12.439Z,7.60
2023-02-12T13:40:41.270Z,7.60
2023-02-12T13:43:10.843Z,7.70
2023-02-12T13:46:12.914Z,7.80
2023-02-12T13:49:00.361Z,7.80
2023-02-12T13:51:50.268Z,7.80
2023-02-12T13:54:35.287Z,7.80
2023-02-12T13:57:07.241Z,7.90
2023-02-12T13:59:36.733Z,7.90
2023-02-12T14:02:23.483Z,7.90
2023-02-12T14:04:53.072Z,7.90
2023-02-12T14:07:21.429Z,7.90
2023-02-12T14:09:51.081Z,7.90
2023-02-12T14:12:31.987Z,7.90
2023-02-12T14:15:10.958Z,7.90
2023-02-12T14:17:40.408Z,7.90
2023-02-12T14:20:25.202Z,7.90
2023-02-12T14:22:51.732Z,7.90
2023-02-12T14:25:24.210Z,8.00
2023-02-12T14:28:06.363Z,8.00
2023-02-12T14:30:33.544Z,8.00
2023-02-12T14:33:19.506Z,8.00
2023-02-12T14:35:49.356Z,8.00
2023-02-12T14:38:15.897Z,8.00
2023-02-12T14:40:54.054Z,8.00
2023-02-12T14:43:56.976Z,8.00
2023-02-12T14:46:23.672Z,8.10
2023-02-12T14:49:04.685Z,8.00
2023-02-12T14:51:36.812Z,8.10
2023-02-12T14:54:11.279Z,8.00
2023-02-12T14:56:46.652Z,8.10
2023-02-12T14:59:20.723Z,8.10
2023-02-12T15:01:49.039Z,8.00
2023-02-12T15:04:27.646Z,8.00
2023-02-12T15:06:59.234Z,8.00
2023-02-12T15:09:47.997Z,8.00
2023-02-12T15:12:20.810Z,8.00
2023-02-12T15:15:12.961Z,8.00
2023-02-12T15:17:42.640Z,8.00
2023-02-12T15:20:33.439Z,8.00
2023-02-12T15:23:00.140Z,8.00
2023-02-12T15:25:29.311Z,8.00
2023-02-12T15:28:20.858Z,8.00
2023-02-12T15:30:47.537Z,8.00
2023-02-12T15:33:34.252Z,7.90
2023-02-12T15:36:03.517Z,7.90
2023-02-12T15:38:39.882Z,7.90
2023-02-12T15:41:07.513Z,7.90
2023-02-12T15:43:40.180Z,7.90
2023-02-12T15:46:15.163Z,7.90
2023-02-12T15:48:42.162Z,7.90
2023-02-12T15:51:17.813Z,7.80
2023-02-12T15:53:44.874Z,7.80
2023-02-12T15:56:22.836Z,7.80
2023-02-12T15:58:52.787Z,7.80
2023-02-12T16:01:22.874Z,7.70
2023-02-12T16:03:52.732Z,7.70
2023-02-12T16:06:20.935Z,7.70
2023-02-12T16:08:51.244Z,7.60
2023-02-12T16:11:21.922Z,7.60
2023-02-12T16:13:55.503Z,7.60
2023-02-12T16:16:26.185Z,7.60
2023-02-12T16:19:22.595Z,7.60
2023-02-12T16:22:06.131Z,7.60
2023-02-12T16:24:39.395Z,7.50
2023-02-12T16:27:17.190Z,7.50
2023-02-12T16:29:51.197Z,7.50
2023-02-12T16:32:31.006Z,7.50
2023-02-12T16:35:06.009Z,7.40
2023-02-12T16:37:35.345Z,7.40
2023-02-12T16:40:14.259Z,7.40
2023-02-12T16:42:46.846Z,7.30
2023-02-12T16:45:28.468Z,7.30
2023-02-12T16:48:00.694Z,7.20
2023-02-12T16:50:33.963Z,7.10
2023-02-12T16:53:03.633Z,7.10
2023-02-12T16:55:30.377Z,6.90
2023-02-12T16:57:57.116Z,6.90
2023-02-12T17:00:23.992Z,6.80
2023-02-12T17:02:50.886Z,6.70
2023-02-12T17:05:18.343Z,6.70
2023-02-12T17:07:45.430Z,6.70
2023-02-12T17:10:16.355Z,6.60
2023-02-12T17:12:51.612Z,6.50
2023-02-12T17:15:25.572Z,6.40
2023-02-12T17:17:52.317Z,6.30
2023-02-12T17:20:19.159Z,6.30
2023-02-12T17:22:51.506Z,6.30
2023-02-12T17:25:18.611Z,6.30
2023-02-12T17:27:45.532Z,6.10
2023-02-12T17:30:21.455Z,6.00
2023-02-12T17:32:49.656Z,6.10
2023-02-12T17:35:18.064Z,6.00
2023-02-12T17:37:44.872Z,6.00
2023-02-12T17:40:12.547Z,6.00
2023-02-12T17:42:39.243Z,6.00
2023-02-12T17:45:06.544Z,6.00
2023-02-12T17:47:39.533Z,5.80
2023-02-12T17:50:14.573Z,5.70
2023-02-12T17:52:41.688Z,5.50
2023-02-12T17:55:10.514Z,5.40
2023-02-12T17:57:37.335Z,5.30
2023-02-12T18:00:05.759Z,5.40
2023-02-12T18:02:32.362Z,5.30
2023-02-12T18:04:59.026Z,5.10
2023-02-12T18:07:25.817Z,5.10
2023-02-12T18:09:52.551Z,5.10
2023-02-12T18:12:19.333Z,5.10
2023-02-12T18:14:46.095Z,5.10
2023-02-12T18:17:12.848Z,5.10
2023-02-12T18:19:39.462Z,5.00
2023-02-12T18:22:06.292Z,5.00
2023-02-12T18:24:34.936Z,4.90
2023-02-12T18:27:02.010Z,4.90
2023-02-12T18:29:28.732Z,4.80
2023-02-12T18:31:55.851Z,4.80
2023-02-12T18:34:24.109Z,4.80
2023-02-12T18:36:51.061Z,4.80
2023-02-12T18:39:17.762Z,4.80
2023-02-12T18:41:44.449Z,4.80
2023-02-12T18:44:11.196Z,4.90
2023-02-12T18:46:38.013Z,4.90
2023-02-12T18:49:04.674Z,4.80
2023-02-12T18:51:36.446Z,4.80
2023-02-12T18:54:07.993Z,4.80
2023-02-12T18:56:37.164Z,4.90
2023-02-12T18:59:05.686Z,4.90
2023-02-12T19:01:34.072Z,4.90
2023-02-12T19:04:02.302Z,4.90
2023-02-12T19:06:30.595Z,4.90
2023-02-12T19:08:59.834Z,4.90
2023-02-12T19:11:27.923Z,4.70
2023-02-12T19:13:54.768Z,4.70
2023-02-12T19:16:23.650Z,4.70
2023-02-12T19:18:55.078Z,4.70
2023-02-12T19:21:26.141Z,4.60
2023-02-12T19:23:54.824Z,4.60
2023-02-12T19:26:22.098Z,4.60
2023-02-12T19:28:48.798Z,4.40
2023-02-12T19:31:18.796Z,4.40
2023-02-12T19:33:46.425Z,4.40
2023-02-12T19:36:16.758Z,4.40
2023-02-12T19:38:43.868Z,4.40
2023-02-12T19:41:15.904Z,4.40
2023-02-12T19:43:43.186Z,4.40
2023-02-12T19:46:12.847Z,4.30
2023-02-12T19:48:39.886Z,4.30
2023-02-12T19:51:07.156Z,4.20
2023-02-12T19:53:33.745Z,4.20
2023-02-12T19:56:02.149Z,4.20
2023-02-12T19:58:30.367Z,4.20
2023-02-12T20:00:57.946Z,4.10
2023-02-12T20:03:26.195Z,4.10
2023-02-12T20:06:05.126Z,4.00
2023-02-12T20:08:33.285Z,3.90
2023-02-12T20:10:59.917Z,3.90
2023-02-12T20:13:26.501Z,3.80
2023-02-12T20:15:54.514Z,3.90
2023-02-12T20:18:21.218Z,3.80
2023-02-12T20:20:47.830Z,3.70
2023-02-12T20:23:14.590Z,3.60
2023-02-12T20:25:45.246Z,3.50
2023-02-12T20:28:11.954Z,3.50
2023-02-12T20:30:42.845Z,3.40
2023-02-12T20:33:10.244Z,3.40
2023-02-12T20:35:37.263Z,3.40
2023-02-12T20:38:07.556Z,3.50
2023-02-12T20:40:34.245Z,3.50
2023-02-12T20:43:00.852Z,3.50
2023-02-12T20:45:27.958Z,3.50
2023-02-12T20:47:54.594Z,3.50
2023-02-12T20:50:22.330Z,3.50
2023-02-12T20:52:49.235Z,3.50
2023-02-12T20:55:15.919Z,3.50
2023-02-12T20:57:42.528Z,3.50
2023-02-12T21:00:09.822Z,3.40
2023-02-12T21:02:36.460Z,3.30
2023-02-12T21:05:03.196Z,3.40
2023-02-12T21:07:29.802Z,3.30
2023-02-12T21:09:56.363Z,3.30
2023-02-12T21:12:22.988Z,3.30
2023-02-12T21:14:49.560Z,3.30
2023-02-12T21:17:16.409Z,3.40
2023-02-12T21:19:42.969Z,3.40
2023-02-12T21:22:09.600Z,3.30
2023-02-12T21:24:36.246Z,3.30
2023-02-12T21:27:03.100Z,3.30
2023-02-12T21:29:32.978Z,3.20
2023-02-12T21:32:01.090Z,3.20
2023-02-12T21:34:28.065Z,3.10
2023-02-12T21:36:56.131Z,3.20
2023-02-12T21:39:26.959Z,3.20
2023-02-12T21:42:02.773Z,3.10
2023-02-12T21:44:32.134Z,3.00
2023-02-12T21:46:58.871Z,3.00
2023-02-12T21:49:27.312Z,3.00
2023-02-12T21:52:06.512Z,3.00
2023-02-12T21:54:33.716Z,3.00
2023-02-12T21:57:00.669Z,3.00
2023-02-12T21:59:30.032Z,3.00
2023-02-12T22:01:59.135Z,3.10
2023-02-12T22:04:26.457Z,3.10
2023-02-12T22:06:53.937Z,3.10
2023-02-12T22:09:22.409Z,3.10
2023-02-12T22:11:49.699Z,3.00
2023-02-12T22:14:17.685Z,2.90
2023-02-12T22:16:44.831Z,2.70
2023-02-12T22:19:11.568Z,2.70
2023-02-12T22:21:40.597Z,2.70
2023-02-12T22:24:09.562Z,2.70
2023-02-12T22:26:36.581Z,2.70
2023-02-12T22:29:06.595Z,2.80
2023-02-12T22:31:36.116Z,2.70
2023-02-12T22:34:06.009Z,2.70
2023-02-12T22:36:35.117Z,2.70
2023-02-12T22:39:02.146Z,2.60
2023-02-12T22:41:29.488Z,2.70
2023-02-12T22:43:59.983Z,2.70
2023-02-12T22:46:27.613Z,2.60
2023-02-12T22:48:54.264Z,2.60
2023-02-12T22:51:22.616Z,2.60
2023-02-12T22:53:49.438Z,2.50
2023-02-12T22:56:16.775Z,2.50
2023-02-12T22:58:44.387Z,2.50
2023-02-12T23:01:17.769Z,2.50
2023-02-12T23:03:45.528Z,2.50
2023-02-12T23:06:15.134Z,2.50
2023-02-12T23:08:42.336Z,2.50
2023-02-12T23:11:09.856Z,2.50
2023-02-12T23:13:36.898Z,2.50
2023-02-12T23:16:04.230Z,2.40
2023-02-12T23:18:30.969Z,2.40
2023-02-12T23:20:58.158Z,2.30
2023-02-12T23:23:25.056Z,2.40
2023-02-12T23:25:53.843Z,2.40
2023-02-12T23:28:21.323Z,2.40
2023-02-12T23:30:49.079Z,2.30
2023-02-12T23:33:16.049Z,2.20
2023-02-12T23:35:44.383Z,2.20
2023-02-12T23:38:11.350Z,2.10
2023-02-12T23:40:37.938Z,2.10
2023-02-12T23:43:04.630Z,2.10
2023-02-12T23:45:31.724Z,2.10
2023-02-12T23:47:58.541Z,2.00
2023-02-12T23:50:25.147Z,2.00
2023-02-12T23:52:51.780Z,2.00
2023-02-12T23:55:20.133Z,2.00
2023-02-12T23:57:47.460Z,2.00
